createdAt,value
2023-05-05T00:48:23.202Z,12.6
2023-05-05T01:08:27.113Z,12.5
2023-05-05T01:18:29.015Z,12.6
2023-05-05T01:28:31.308Z,12.8
2023-05-05T01:38:33.645Z,12.6
2023-05-05T01:48:35.289Z,12.4
2023-05-05T01:58:37.469Z,12.4
2023-05-05T02:08:39.566Z,12.4
2023-05-05T02:18:42.014Z,12.6
2023-05-05T02:28:43.912Z,12.7
2023-05-05T02:38:46.024Z,12.7
2023-05-05T02:48:48.314Z,12.8
2023-05-05T02:58:50.482Z,12.8
2023-05-05T03:08:52.247Z,13.1
2023-05-05T03:18:54.621Z,13.1
2023-05-05T03:28:56.835Z,14
2023-05-05T03:38:59.438Z,14.1
2023-05-05T03:59:04.316Z,14.1
2023-05-05T04:09:06.253Z,14.3
2023-05-05T04:19:08.276Z,14.2
2023-05-05T04:29:10.757Z,14.1
2023-05-05T04:39:13.189Z,14
2023-05-05T04:49:15.761Z,13.9
2023-05-05T04:59:17.701Z,13.9
2023-05-05T05:09:19.435Z,14
2023-05-05T05:19:21.738Z,14.4
2023-05-05T05:29:24.055Z,14.7
2023-05-05T05:39:25.885Z,15.5
2023-05-05T05:49:27.792Z,16.3
2023-05-05T05:59:29.621Z,16.7
2023-05-05T06:09:31.485Z,17
2023-05-05T06:19:33.649Z,17.5
2023-05-05T06:29:35.686Z,17.7
2023-05-05T06:39:37.405Z,17.9
2023-05-05T06:49:39.920Z,18.3
2023-05-05T06:59:41.856Z,19
2023-05-05T07:09:43.679Z,19.1
2023-05-05T07:19:46.093Z,19.4
2023-05-05T07:29:48.094Z,19.6
2023-05-05T07:39:50.548Z,19.3
2023-05-05T07:49:53.163Z,19.2
2023-05-05T07:59:55.729Z,19.4
2023-05-05T08:09:58.338Z,19.5
2023-05-05T08:20:00.018Z,19.3
2023-05-05T08:20:21.949Z,19.3
2023-05-05T08:50:13.646Z,19.4
2023-05-05T09:20:19.998Z,19.6
2023-05-05T09:40:24.467Z,20.2
2023-05-05T10:20:33.256Z,20.8
2023-05-05T10:40:37.050Z,21
2023-05-05T11:00:41.281Z,21.3
2023-05-05T11:10:43.537Z,21.2
2023-05-05T11:20:45.211Z,21.5
2023-05-05T11:30:46.942Z,21.7
2023-05-05T11:40:48.980Z,21.6
2023-05-05T11:50:50.782Z,21.6
2023-05-05T12:00:53.121Z,21.7
2023-05-05T12:10:55.584Z,21.7
2023-05-05T12:20:57.236Z,21.3
2023-05-05T12:30:59.627Z,21
2023-05-05T12:41:01.965Z,19.8
2023-05-05T12:51:03.810Z,17
2023-05-05T13:01:05.877Z,15
2023-05-05T13:11:08.436Z,14.6
2023-05-05T13:51:16.321Z,15.4
2023-05-05T14:01:18.318Z,15.6
2023-05-05T14:51:29.130Z,16.1
2023-05-05T15:11:33.476Z,15.7
2023-05-05T15:31:37.773Z,14.2
2023-05-05T15:41:40.015Z,13.6
2023-05-05T15:51:41.998Z,13.4
2023-05-05T16:01:44.490Z,13.5
2023-05-05T16:11:46.611Z,13.6
2023-05-05T16:21:48.333Z,13.6
2023-05-05T16:31:50.142Z,13.3
2023-05-05T16:41:52.199Z,13.2
2023-05-05T16:51:53.888Z,13.2
2023-05-05T17:01:55.852Z,13.2
2023-05-05T17:21:59.836Z,13.4
2023-05-05T17:32:01.645Z,13.5
2023-05-05T17:42:03.349Z,13.4
2023-05-05T18:22:12.419Z,12.9
2023-05-05T18:32:14.329Z,12.8
2023-05-05T18:42:16.554Z,12.7
2023-05-05T18:52:19.120Z,12.6
2023-05-05T19:02:20.982Z,12.5
2023-05-05T19:12:23.166Z,12.5
2023-05-05T19:22:25.310Z,12.4
2023-05-05T19:32:27.672Z,12.4
2023-05-05T19:42:29.326Z,12.4
2023-05-05T19:52:31.557Z,12.3
2023-05-05T20:02:36.231Z,12.1
2023-05-05T20:12:36.016Z,11.9
2023-05-05T20:22:38.816Z,11.8
2023-05-05T20:32:40.717Z,11.6
2023-05-05T20:42:42.999Z,11.5
2023-05-05T21:02:47.176Z,11.4
2023-05-05T21:12:48.846Z,11.2
2023-05-05T21:22:51.208Z,11.1
2023-05-05T21:32:53.270Z,11
2023-05-05T21:42:55.624Z,10.8
2023-05-05T21:52:57.693Z,10.7
2023-05-05T22:02:59.501Z,10.6
2023-05-05T22:13:01.485Z,10.6
2023-05-05T22:23:03.322Z,10.4
2023-05-05T22:33:05.713Z,10.4
2023-05-05T22:43:07.998Z,10.4
2023-05-05T22:53:10.600Z,10.3
2023-05-05T23:03:12.786Z,10.2
2023-05-05T23:13:14.537Z,10.2
2023-05-05T23:23:16.572Z,10.1
2023-05-05T23:33:18.340Z,10
2023-05-05T23:53:22.592Z,9.9
